Reed Point, Montana
Current Conditions -  °F | °C
As of 3:53 AM on Friday 28 Nov 2014 (Local Time) from KLVM Reporting Station
Broken Clouds Broken Clouds  
Wind Chill: 53°   Ceiling: 9000
Heat Index: 53°   Visibility: 10mi
Dew Point: 25°   Wind: 21mph
Humidity: 34%   Direction: 200°SSW
Pressure: 29.72"   Gusts: 37mph
Location:  45.71°N, 109.54°W
Report Text: KLVM 281053Z AUTO 20018G32KT 10SM BKN090 BKN110 12/M04 A2972 RMK AO2 PK WND 20034/1041 SLP043 T01171039
Loading
Personal Weather Stations






























Interactive Weather Map New forecast layout! Learn more

10-Day Weather Forecast

Advertisements
Track Severe Weather on mobile